Time;durP1;ratioP1;P1;durP2;ratioP2;P2;SDS_P1;SDS_P2;PMS_P1;PMS_P2;Temp;Humidity;BMP_temperature;BMP_pressure;BME280_temperature;BME280_humidity;BME280_pressure;Samples;Min_cycle;Max_cycle;Signal;HPM_P1;HPM_P2
2023/05/14 00:00:41;;;;;;;5.87;5.10;;;;;;;13.48;100.00;102278.41;5041022;28;20217;-78
2023/05/14 00:03:06;;;;;;;6.93;5.50;;;;;;;13.46;100.00;102264.63;5013804;28;20324;-78
2023/05/14 00:05:32;;;;;;;5.73;4.73;;;;;;;13.23;100.00;102265.59;4995022;28;20247;-78
2023/05/14 00:07:57;;;;;;;5.33;4.80;;;;;;;13.19;100.00;102258.59;5001420;28;20213;-78
2023/05/14 00:10:23;;;;;;;6.40;5.80;;;;;;;12.97;100.00;102269.91;5031866;28;20213;-78
2023/05/14 00:12:50;;;;;;;6.73;6.10;;;;;;;12.92;100.00;102271.44;5008369;28;20267;-78
2023/05/14 00:15:16;;;;;;;6.53;5.70;;;;;;;13.01;100.00;102258.03;5049658;28;20205;-78
2023/05/14 00:17:41;;;;;;;8.23;6.10;;;;;;;13.02;100.00;102254.66;5035363;28;20263;-79
2023/05/14 00:20:07;;;;;;;8.80;6.67;;;;;;;12.84;100.00;102262.59;5014261;28;20202;-78
2023/05/14 00:22:33;;;;;;;6.83;5.70;;;;;;;12.74;100.00;102269.13;5017290;28;20206;-78
2023/05/14 00:24:59;;;;;;;6.97;4.97;;;;;;;12.86;100.00;102279.81;4997660;28;20198;-78
2023/05/14 00:27:25;;;;;;;9.17;5.50;;;;;;;12.90;100.00;102275.66;5011335;28;20202;-78
2023/05/14 00:29:50;;;;;;;7.00;5.13;;;;;;;12.90;100.00;102268.81;5033527;28;20201;-78
2023/05/14 00:32:16;;;;;;;6.70;4.90;;;;;;;12.86;100.00;102274.66;5013812;28;20217;-78
2023/05/14 00:34:41;;;;;;;5.30;4.80;;;;;;;12.84;100.00;102273.75;5009014;28;20201;-77
2023/05/14 00:37:07;;;;;;;6.27;5.67;;;;;;;12.72;100.00;102287.91;5025206;28;20213;-78
2023/05/14 00:39:33;;;;;;;7.87;5.83;;;;;;;12.75;100.00;102277.69;5042684;28;20795;-78
2023/05/14 00:41:59;;;;;;;8.27;5.50;;;;;;;12.63;100.00;102283.31;5001202;28;20202;-77
2023/05/14 00:44:24;;;;;;;5.80;5.30;;;;;;;12.65;100.00;102276.53;5047342;28;20694;-79
2023/05/14 00:46:50;;;;;;;6.43;5.10;;;;;;;12.51;100.00;102274.31;5009621;28;20302;-77
2023/05/14 00:49:16;;;;;;;5.93;5.07;;;;;;;12.40;100.00;102291.06;5026717;28;20183;-78
2023/05/14 00:51:45;;;;;;;8.03;5.20;;;;;;;12.41;100.00;102277.38;5008559;28;20687;-78
2023/05/14 00:54:15;;;;;;;7.47;5.70;;;;;;;12.47;100.00;102263.06;5038626;28;20194;-78
2023/05/14 00:56:45;;;;;;;7.13;5.33;;;;;;;12.31;100.00;102285.59;5032968;28;20297;-78
2023/05/14 00:59:10;;;;;;;7.27;5.93;;;;;;;12.36;100.00;102266.94;5015714;28;20238;-78
2023/05/14 01:01:36;;;;;;;7.10;5.20;;;;;;;12.27;100.00;102263.19;4993723;28;20439;-78
2023/05/14 01:04:03;;;;;;;7.50;5.50;;;;;;;12.19;100.00;102275.75;5013971;28;20198;-78
2023/05/14 01:06:43;;;;;;;7.20;5.77;;;;;;;12.22;100.00;102260.44;5003315;28;20218;-78
2023/05/14 01:09:12;;;;;;;6.93;5.20;;;;;;;12.16;100.00;102265.38;5008859;28;20205;-78
2023/05/14 01:12:06;;;;;;;8.27;5.70;;;;;;;12.08;100.00;102268.50;4998990;28;20217;-78
2023/05/14 01:14:32;;;;;;;7.07;6.00;;;;;;;12.02;100.00;102264.00;4989313;28;20217;-78
2023/05/14 01:17:00;;;;;;;6.10;5.50;;;;;;;11.86;100.00;102264.28;4993161;28;20214;-78
2023/05/14 01:19:36;;;;;;;9.73;5.70;;;;;;;11.94;100.00;102238.88;5012595;28;20274;-78
2023/05/14 01:22:01;;;;;;;8.20;5.93;;;;;;;11.88;100.00;102233.50;5010955;28;20627;-78
2023/05/14 01:24:27;;;;;;;14.93;5.77;;;;;;;11.91;100.00;102207.94;5000211;28;20221;-78
2023/05/14 01:27:05;;;;;;;6.73;6.03;;;;;;;11.77;100.00;102214.28;5007820;28;20215;-78
2023/05/14 01:29:33;;;;;;;7.97;5.57;;;;;;;11.73;100.00;102187.66;5044036;28;20261;-78
2023/05/14 01:31:59;;;;;;;7.93;5.87;;;;;;;11.68;100.00;102183.16;5030532;28;20209;-78
2023/05/14 01:34:28;;;;;;;7.57;5.77;;;;;;;11.58;100.00;102181.03;5029704;28;20664;-78
2023/05/14 01:36:56;;;;;;;7.87;5.60;;;;;;;11.54;100.00;102161.22;5011995;28;20279;-78
2023/05/14 01:39:23;;;;;;;7.93;6.10;;;;;;;11.50;100.00;102147.41;5000214;28;20220;-78
2023/05/14 01:41:50;;;;;;;7.10;5.40;;;;;;;11.53;100.00;102144.94;5011134;28;20272;-78
2023/05/14 01:44:17;;;;;;;6.70;6.00;;;;;;;11.48;100.00;102133.66;5023677;28;20269;-78
2023/05/14 01:46:42;;;;;;;7.43;6.30;;;;;;;11.47;100.00;102139.59;5025597;28;20217;-78
2023/05/14 01:49:08;;;;;;;6.40;5.80;;;;;;;11.37;100.00;102128.94;5013463;28;20198;-78
2023/05/14 01:51:33;;;;;;;6.70;6.00;;;;;;;11.34;100.00;102124.56;5012264;28;20325;-78
2023/05/14 01:53:59;;;;;;;6.70;6.10;;;;;;;11.24;100.00;102127.63;5010570;28;20195;-78
2023/05/14 01:56:25;;;;;;;7.97;6.47;;;;;;;11.25;100.00;102125.94;5041005;28;20215;-78
2023/05/14 01:58:50;;;;;;;9.40;6.23;;;;;;;11.15;100.00;102129.84;4995475;28;20680;-78
2023/05/14 02:01:16;;;;;;;10.67;6.77;;;;;;;11.13;100.00;102117.78;5008760;28;20194;-78
2023/05/14 02:03:41;;;;;;;7.03;6.37;;;;;;;11.07;100.00;102128.66;5039096;28;20688;-78
2023/05/14 02:06:07;;;;;;;7.00;6.40;;;;;;;10.97;100.00;102124.03;5009286;28;20207;-78
2023/05/14 02:08:32;;;;;;;6.87;6.17;;;;;;;10.85;100.00;102126.13;5004794;28;20191;-78
2023/05/14 02:10:58;;;;;;;8.13;6.67;;;;;;;10.91;100.00;102126.34;5026310;28;20186;-78
2023/05/14 02:13:25;;;;;;;8.87;6.50;;;;;;;10.83;100.00;102122.63;4993388;28;20226;-78
2023/05/14 02:15:50;;;;;;;7.00;6.40;;;;;;;10.82;100.00;102115.75;5009284;28;20202;-78
2023/05/14 02:18:16;;;;;;;7.10;6.40;;;;;;;10.78;100.00;102118.16;5006752;28;20226;-78
2023/05/14 02:20:42;;;;;;;8.03;6.53;;;;;;;10.68;100.00;102122.03;5042183;28;20190;-78
2023/05/14 02:23:07;;;;;;;7.07;6.37;;;;;;;10.70;100.00;102117.81;4995618;28;20549;-78
2023/05/14 02:25:33;;;;;;;6.77;6.00;;;;;;;10.71;100.00;102111.03;5044070;28;20277;-78
2023/05/14 02:27:58;;;;;;;7.50;6.57;;;;;;;10.66;100.00;102113.44;5011639;28;20700;-78
2023/05/14 02:30:23;;;;;;;6.83;6.20;;;;;;;10.63;100.00;102108.16;4991896;28;20213;-78
2023/05/14 02:32:49;;;;;;;6.77;6.03;;;;;;;10.59;100.00;102111.41;5006270;28;20253;-78
2023/05/14 02:35:15;;;;;;;7.63;6.40;;;;;;;10.46;100.00;102114.31;5029442;28;20695;-78
2023/05/14 02:37:40;;;;;;;6.90;6.20;;;;;;;10.45;100.00;102111.66;5020420;28;20218;-78
2023/05/14 02:40:06;;;;;;;8.83;6.80;;;;;;;10.38;100.00;102104.56;5029933;28;20241;-78
2023/05/14 02:42:31;;;;;;;9.27;6.23;;;;;;;10.29;100.00;102107.66;5010989;28;20195;-78
2023/05/14 02:44:57;;;;;;;9.33;7.07;;;;;;;10.19;100.00;102107.22;4992677;28;20198;-78
2023/05/14 02:47:22;;;;;;;8.90;6.50;;;;;;;10.15;100.00;102115.56;5042214;28;20206;-77
2023/05/14 02:49:48;;;;;;;7.90;7.10;;;;;;;10.19;100.00;102114.88;5008839;28;20202;-77
2023/05/14 02:52:14;;;;;;;8.20;6.53;;;;;;;10.09;100.00;102110.19;4997260;28;20600;-78
2023/05/14 02:54:39;;;;;;;7.53;6.83;;;;;;;10.14;100.00;102101.88;5011082;28;20289;-77
2023/05/14 02:57:05;;;;;;;7.67;6.93;;;;;;;10.14;100.00;102107.00;4995406;28;20214;-77
2023/05/14 02:59:30;;;;;;;9.17;7.00;;;;;;;10.00;100.00;102097.00;5014663;28;20194;-78
2023/05/14 03:01:56;;;;;;;8.70;7.80;;;;;;;9.94;100.00;102104.38;4995963;28;20282;-77
2023/05/14 03:04:22;;;;;;;7.97;7.03;;;;;;;9.96;100.00;102103.63;4997916;28;20194;-77
2023/05/14 03:06:47;;;;;;;8.87;8.03;;;;;;;10.01;100.00;102099.63;5009308;28;20717;-77
2023/05/14 03:09:13;;;;;;;11.17;9.77;;;;;;;10.01;100.00;102094.50;4996511;28;20283;-77
2023/05/14 03:11:38;;;;;;;10.33;9.33;;;;;;;9.96;100.00;102106.19;4996030;28;20225;-78
2023/05/14 03:14:04;;;;;;;10.63;9.23;;;;;;;9.95;100.00;102099.34;4995695;28;20667;-78
2023/05/14 03:16:29;;;;;;;10.33;9.30;;;;;;;9.88;100.00;102099.91;5039255;28;20242;-77
2023/05/14 03:18:55;;;;;;;10.27;9.27;;;;;;;9.83;100.00;102103.06;5011774;28;20224;-77
2023/05/14 03:21:20;;;;;;;10.87;8.50;;;;;;;9.79;100.00;102098.63;5014100;28;20686;-78
2023/05/14 03:23:47;;;;;;;10.10;9.07;;;;;;;9.85;100.00;102097.22;5014618;28;20198;-77
2023/05/14 03:26:13;;;;;;;9.33;8.33;;;;;;;9.65;100.00;102100.63;5023172;28;20679;-77
2023/05/14 03:28:39;;;;;;;9.33;8.43;;;;;;;9.63;100.00;102106.47;5004855;28;20239;-77
2023/05/14 03:31:05;;;;;;;9.13;7.90;;;;;;;9.65;100.00;102102.28;5027863;28;20287;-78
2023/05/14 03:33:30;;;;;;;9.00;7.60;;;;;;;9.61;100.00;102105.50;5009976;28;20762;-78
2023/05/14 03:35:56;;;;;;;10.07;7.80;;;;;;;9.63;100.00;102102.22;5040025;28;20205;-78
2023/05/14 03:38:21;;;;;;;10.10;8.03;;;;;;;9.63;100.00;102102.22;5005875;28;20684;-77
2023/05/14 03:40:47;;;;;;;9.40;7.60;;;;;;;9.70;100.00;102105.91;5028206;28;20568;-78
2023/05/14 03:43:12;;;;;;;8.57;7.73;;;;;;;9.67;100.00;102101.53;5000942;28;20201;-77
2023/05/14 03:45:38;;;;;;;8.77;7.87;;;;;;;9.69;100.00;102097.38;5007428;28;20672;-78
2023/05/14 03:48:04;;;;;;;8.67;7.63;;;;;;;9.68;100.00;102099.88;5044621;28;20209;-77
2023/05/14 03:50:31;;;;;;;9.00;8.17;;;;;;;9.73;100.00;102103.50;4997190;28;20982;-77
2023/05/14 03:52:56;;;;;;;9.20;7.70;;;;;;;9.68;100.00;102100.72;5010496;28;20190;-77
2023/05/14 03:55:22;;;;;;;9.27;7.40;;;;;;;9.65;100.00;102098.06;5010136;28;20190;-77
2023/05/14 03:57:48;;;;;;;9.20;8.30;;;;;;;9.69;100.00;102099.06;5010864;28;21261;-77
2023/05/14 04:00:14;;;;;;;9.83;8.03;;;;;;;9.73;100.00;102100.94;4997720;28;20194;-77
2023/05/14 04:02:42;;;;;;;9.33;8.17;;;;;;;9.76;100.00;102099.38;5005383;28;20610;-77
2023/05/14 04:05:08;;;;;;;8.87;7.97;;;;;;;9.81;100.00;102095.31;5000480;28;20187;-77
2023/05/14 04:07:33;;;;;;;11.40;8.43;;;;;;;9.84;100.00;102097.13;5001143;28;20205;-77
2023/05/14 04:09:59;;;;;;;12.43;8.03;;;;;;;9.86;100.00;102093.84;5026356;28;20186;-78
2023/05/14 04:12:25;;;;;;;9.67;8.70;;;;;;;9.81;100.00;102095.31;5011094;28;20301;-77
2023/05/14 04:14:51;;;;;;;8.83;7.93;;;;;;;9.88;100.00;102105.03;5014090;28;20199;-77
2023/05/14 04:17:17;;;;;;;9.23;8.23;;;;;;;9.93;100.00;102093.28;5024993;28;20214;-77
2023/05/14 04:19:43;;;;;;;10.80;8.33;;;;;;;9.96;100.00;102102.78;5010972;28;20651;-77
2023/05/14 04:22:08;;;;;;;12.07;7.93;;;;;;;10.03;100.00;102097.09;5035270;28;20650;-78
2023/05/14 04:24:33;;;;;;;10.97;8.00;;;;;;;10.04;100.00;102093.75;5028336;28;20186;-78
2023/05/14 04:26:59;;;;;;;10.13;8.03;;;;;;;10.07;100.00;102089.66;5014340;28;20214;-78
2023/05/14 04:29:24;;;;;;;8.40;7.67;;;;;;;10.16;100.00;102091.72;5031547;28;20230;-78
2023/05/14 04:31:50;;;;;;;9.83;8.70;;;;;;;10.19;100.00;102087.59;5000052;28;20254;-77
2023/05/14 04:34:15;;;;;;;11.73;7.97;;;;;;;10.25;100.00;102092.09;5008701;28;20213;-77
2023/05/14 04:36:41;;;;;;;8.70;7.67;;;;;;;10.35;100.00;102094.19;5015184;28;20225;-77
2023/05/14 04:39:08;;;;;;;9.77;8.43;;;;;;;10.45;100.00;102086.06;5017923;28;20215;-78
2023/05/14 04:41:33;;;;;;;9.17;7.83;;;;;;;10.51;100.00;102091.47;5040119;28;20199;-77
2023/05/14 04:44:00;;;;;;;9.33;8.00;;;;;;;10.60;100.00;102086.69;5032280;28;20259;-78
2023/05/14 04:46:26;;;;;;;9.63;8.50;;;;;;;10.66;100.00;102084.34;5032766;28;20218;-77
2023/05/14 04:48:52;;;;;;;9.73;8.13;;;;;;;10.77;100.00;102080.50;5035639;28;20718;-78
2023/05/14 04:51:17;;;;;;;9.07;8.27;;;;;;;10.88;100.00;102089.50;5036134;28;20731;-78
2023/05/14 04:53:43;;;;;;;9.97;7.67;;;;;;;10.99;100.00;102090.75;5017105;28;20190;-78
2023/05/14 04:56:09;;;;;;;8.67;7.77;;;;;;;11.11;100.00;102092.09;5010038;28;20634;-78
2023/05/14 04:58:35;;;;;;;11.10;8.73;;;;;;;11.24;100.00;102096.00;5051783;28;20215;-78
2023/05/14 05:01:01;;;;;;;9.93;7.97;;;;;;;11.36;100.00;102094.75;5033355;28;20200;-78
2023/05/14 05:03:27;;;;;;;9.47;8.43;;;;;;;11.50;100.00;102095.22;5033820;28;20194;-78
2023/05/14 05:05:52;;;;;;;10.50;7.63;;;;;;;11.63;100.00;102093.22;5028680;28;20217;-78
2023/05/14 05:08:17;;;;;;;8.83;7.97;;;;;;;11.76;100.00;102094.50;5050781;28;20210;-78
2023/05/14 05:10:43;;;;;;;9.63;8.07;;;;;;;11.91;100.00;102092.44;5015150;28;20197;-78
2023/05/14 05:13:08;;;;;;;8.80;8.00;;;;;;;12.06;100.00;102091.28;5029540;28;20667;-78
2023/05/14 05:15:34;;;;;;;9.67;8.67;;;;;;;12.18;100.00;102094.25;5034301;28;20190;-78
2023/05/14 05:17:59;;;;;;;8.63;7.73;;;;;;;12.24;100.00;102094.44;5015398;28;20254;-78
2023/05/14 05:20:26;;;;;;;12.13;7.97;;;;;;;12.40;100.00;102099.25;5037499;28;20290;-78
2023/05/14 05:22:52;;;;;;;9.63;8.33;;;;;;;12.52;100.00;102086.78;5009231;28;20694;-77
2023/05/14 05:25:17;;;;;;;9.83;8.30;;;;;;;12.70;100.00;102087.38;5015879;28;20218;-77
2023/05/14 05:27:43;;;;;;;9.17;8.00;;;;;;;12.88;100.00;102086.19;5033133;28;20213;-77
2023/05/14 05:30:09;;;;;;;9.07;8.13;;;;;;;13.05;100.00;102078.16;5016112;28;20330;-78
2023/05/14 05:32:34;;;;;;;9.20;8.03;;;;;;;13.21;100.00;102067.47;5015894;28;20190;-78
2023/05/14 05:35:00;;;;;;;12.50;7.93;;;;;;;13.33;100.00;102057.53;5033208;28;20571;-78
2023/05/14 05:37:25;;;;;;;8.87;7.60;;;;;;;13.48;100.00;102072.53;5016931;28;20230;-77
2023/05/14 05:39:51;;;;;;;8.23;7.43;;;;;;;13.65;100.00;102068.69;5017739;28;20198;-77
2023/05/14 05:42:16;;;;;;;8.67;7.80;;;;;;;13.73;100.00;102062.94;5033558;28;20225;-77
2023/05/14 05:44:42;;;;;;;10.13;8.07;;;;;;;13.70;100.00;102064.53;5017871;28;20203;-78
2023/05/14 05:47:07;;;;;;;12.07;7.87;;;;;;;13.58;100.00;102080.53;5028522;28;20242;-78
2023/05/14 05:49:32;;;;;;;8.50;7.80;;;;;;;13.60;100.00;102062.56;5012376;28;20190;-78
2023/05/14 05:51:58;;;;;;;9.00;7.63;;;;;;;13.75;100.00;102060.38;5033070;28;20453;-78
2023/05/14 05:54:24;;;;;;;10.73;8.27;;;;;;;13.85;100.00;102067.53;5032588;28;20198;-77
2023/05/14 05:56:50;;;;;;;9.47;8.57;;;;;;;13.90;100.00;102064.22;5032124;28;20213;-78
2023/05/14 05:59:15;;;;;;;9.83;8.80;;;;;;;14.01;100.00;102072.22;5029803;28;20214;-78
2023/05/14 06:01:42;;;;;;;9.33;8.20;;;;;;;14.18;100.00;102058.06;5033583;28;20201;-78
2023/05/14 06:04:08;;;;;;;9.67;8.77;;;;;;;14.44;100.00;102057.00;5032820;28;20195;-78
2023/05/14 06:06:33;;;;;;;10.40;8.40;;;;;;;14.61;100.00;102051.41;5027889;28;20614;-78
2023/05/14 06:09:00;;;;;;;9.60;8.60;;;;;;;14.56;100.00;102054.72;5032821;28;20278;-78
2023/05/14 06:11:26;;;;;;;10.30;8.07;;;;;;;14.82;100.00;102044.13;5032340;28;20190;-78
2023/05/14 06:13:52;;;;;;;12.13;7.93;;;;;;;14.91;100.00;102039.16;5027787;28;20569;-78
2023/05/14 06:16:17;;;;;;;9.27;8.23;;;;;;;15.16;100.00;102013.03;5032356;28;20189;-78
2023/05/14 06:18:43;;;;;;;10.17;8.57;;;;;;;15.29;100.00;102015.00;5032528;28;20222;-77
2023/05/14 06:21:08;;;;;;;9.47;8.37;;;;;;;15.48;100.00;102001.59;5031582;28;20217;-78
2023/05/14 06:23:34;;;;;;;8.53;7.73;;;;;;;15.70;100.00;102005.47;5028301;28;20273;-78
2023/05/14 06:25:59;;;;;;;8.60;7.70;;;;;;;15.91;100.00;101967.94;5012481;28;20264;-79
2023/05/14 06:28:25;;;;;;;9.40;8.23;;;;;;;16.08;100.00;101893.25;5042326;28;20222;-78
2023/05/14 06:30:50;;;;;;;10.73;7.67;;;;;;;16.30;100.00;101888.38;5027845;28;20194;-77
2023/05/14 06:33:16;;;;;;;8.97;7.80;;;;;;;16.27;100.00;101910.75;4994716;28;20190;-78
2023/05/14 06:35:41;;;;;;;8.07;7.30;;;;;;;16.56;100.00;101891.31;5031432;28;20193;-78
2023/05/14 06:38:06;;;;;;;7.77;6.80;;;;;;;16.79;100.00;101827.78;5014169;28;20806;-78
2023/05/14 06:40:32;;;;;;;7.27;6.67;;;;;;;16.96;100.00;101783.09;5002991;28;20566;-78
2023/05/14 06:42:57;;;;;;;7.27;6.20;;;;;;;17.12;100.00;101684.00;5021687;28;20682;-79
2023/05/14 06:45:23;;;;;;;7.50;6.73;;;;;;;17.18;100.00;101688.38;5048141;28;20561;-78
2023/05/14 06:47:48;;;;;;;6.33;5.73;;;;;;;17.28;100.00;101659.94;5013834;28;20591;-78
2023/05/14 06:50:14;;;;;;;7.17;6.40;;;;;;;17.42;100.00;101678.16;5010236;28;20218;-78
2023/05/14 06:52:39;;;;;;;7.80;6.43;;;;;;;17.44;100.00;101659.19;5031048;28;20236;-78
2023/05/14 06:55:05;;;;;;;6.67;5.97;;;;;;;17.58;100.00;101636.78;4996800;28;20255;-78
2023/05/14 06:57:31;;;;;;;10.13;5.40;;;;;;;17.75;98.63;101598.88;5032066;28;20217;-78
2023/05/14 06:59:56;;;;;;;6.93;6.23;;;;;;;17.78;96.74;101582.47;5031510;28;20262;-79
2023/05/14 07:02:21;;;;;;;7.30;6.00;;;;;;;17.96;100.00;101623.97;5026065;28;20198;-79
2023/05/14 07:04:47;;;;;;;7.40;6.30;;;;;;;18.05;100.00;101630.00;5007047;28;20203;-79
2023/05/14 07:07:14;;;;;;;6.40;5.30;;;;;;;18.35;96.40;101595.50;5030989;28;20228;-79
2023/05/14 07:09:41;;;;;;;6.97;5.80;;;;;;;18.46;95.64;101583.38;5031491;28;20779;-78
2023/05/14 07:12:07;;;;;;;6.33;5.70;;;;;;;18.68;92.68;101552.22;5031671;28;20190;-78
2023/05/14 07:14:33;;;;;;;6.97;5.67;;;;;;;18.79;91.76;101541.81;5015155;28;20568;-78
2023/05/14 07:16:59;;;;;;;6.30;5.73;;;;;;;19.03;88.46;101531.34;4997132;28;20222;-78
2023/05/14 07:19:27;;;;;;;6.40;5.80;;;;;;;18.88;88.16;101524.47;5031256;28;20214;-78
2023/05/14 07:21:53;;;;;;;6.63;5.83;;;;;;;18.99;87.91;101525.31;5024343;28;20202;-78
2023/05/14 07:24:18;;;;;;;6.20;5.70;;;;;;;18.97;87.14;101534.81;5042646;28;20186;-78
2023/05/14 07:26:44;;;;;;;6.10;5.53;;;;;;;19.13;82.27;101501.88;5028970;28;20749;-79
2023/05/14 07:29:09;;;;;;;5.93;5.23;;;;;;;19.49;82.36;101499.94;5028934;28;20566;-79
2023/05/14 07:31:35;;;;;;;6.27;5.63;;;;;;;19.64;77.03;101476.47;4993179;28;20609;-79
2023/05/14 07:34:00;;;;;;;5.00;4.50;;;;;;;19.91;72.54;101484.06;5028443;28;20202;-79
2023/05/14 07:36:26;;;;;;;9.03;5.23;;;;;;;19.81;69.06;101517.94;5027796;28;20293;-79
2023/05/14 07:38:51;;;;;;;6.93;5.93;;;;;;;19.79;73.20;101549.16;5031077;28;20214;-78
2023/05/14 07:41:17;;;;;;;7.63;6.40;;;;;;;19.60;78.47;101586.53;4997124;28;20201;-79
2023/05/14 07:43:42;;;;;;;5.37;4.43;;;;;;;20.31;67.28;101518.41;5032056;28;20668;-78
2023/05/14 07:46:08;;;;;;;6.10;4.87;;;;;;;20.55;60.39;101484.34;5031938;28;20224;-79
2023/05/14 07:48:33;;;;;;;4.77;4.17;;;;;;;20.65;56.46;101507.66;5011434;28;20598;-80
2023/05/14 07:50:59;;;;;;;6.53;4.47;;;;;;;20.45;56.23;101517.38;5010999;28;20198;-79
2023/05/14 07:53:25;;;;;;;5.70;4.87;;;;;;;20.56;55.86;101539.00;5012578;28;20229;-79
2023/05/14 07:55:50;;;;;;;5.73;5.23;;;;;;;20.46;60.25;101599.78;5013511;28;20565;-80
2023/05/14 07:58:16;;;;;;;5.53;4.13;;;;;;;20.81;56.41;101557.78;4996140;28;20222;-79
2023/05/14 08:00:41;;;;;;;5.87;3.63;;;;;;;20.89;55.31;101551.63;5016778;28;20198;-79
2023/05/14 08:03:07;;;;;;;3.97;3.67;;;;;;;21.41;56.11;101573.59;4996595;28;20229;-78
2023/05/14 08:05:32;;;;;;;4.40;4.00;;;;;;;21.26;51.91;101546.88;5013493;28;20277;-79
2023/05/14 08:07:58;;;;;;;4.63;4.20;;;;;;;21.34;52.15;101566.75;5031117;28;20238;-79
2023/05/14 08:10:23;;;;;;;4.40;4.00;;;;;;;21.66;51.84;101567.16;5011675;28;20669;-78
2023/05/14 08:12:49;;;;;;;4.40;4.00;;;;;;;21.71;47.46;101535.84;5018199;28;20194;-78
2023/05/14 08:15:15;;;;;;;4.43;3.70;;;;;;;21.90;48.69;101568.56;4998252;28;20201;-79
2023/05/14 08:17:40;;;;;;;4.40;3.50;;;;;;;21.86;47.46;101573.00;5014242;28;20590;-79
2023/05/14 08:20:06;;;;;;;5.20;4.03;;;;;;;22.13;46.56;101577.78;5014468;28;20686;-78
2023/05/14 08:22:31;;;;;;;5.40;4.13;;;;;;;22.35;47.74;101610.47;5034937;28;20251;-78
2023/05/14 08:24:58;;;;;;;4.93;3.90;;;;;;;22.48;47.56;101624.22;5017935;28;20706;-79
2023/05/14 08:27:23;;;;;;;4.17;3.50;;;;;;;22.53;47.52;101724.25;5034715;28;20768;-79
2023/05/14 08:29:50;;;;;;;5.53;3.87;;;;;;;21.90;46.74;101725.09;4998685;28;20194;-79
2023/05/14 08:32:15;;;;;;;8.13;3.90;;;;;;;22.63;47.14;101743.22;5050023;28;20248;-79
2023/05/14 08:34:41;;;;;;;8.37;3.90;;;;;;;22.85;46.76;101721.09;5035543;28;20190;-79
2023/05/14 08:37:06;;;;;;;5.17;4.13;;;;;;;23.01;47.37;101741.72;5035591;28;20621;-81
2023/05/14 08:39:31;;;;;;;4.27;3.60;;;;;;;22.97;44.84;101715.69;5030223;28;20770;-78
2023/05/14 08:41:59;;;;;;;4.03;3.07;;;;;;;23.23;45.17;101726.56;5029768;28;20198;-80
2023/05/14 08:45:01;;;;;;;5.03;3.50;;;;;;;23.47;45.29;101718.25;4995006;28;20186;-79
2023/05/14 08:47:29;;;;;;;3.50;3.00;;;;;;;23.45;42.88;101709.56;5003436;28;20593;-78
2023/05/14 08:50:05;;;;;;;3.80;3.23;;;;;;;23.43;43.76;101737.53;5024272;28;20202;-79
2023/05/14 08:52:31;;;;;;;4.63;3.33;;;;;;;23.52;44.52;101753.88;5028821;28;20194;-80
2023/05/14 08:54:59;;;;;;;3.60;3.30;;;;;;;23.76;43.78;101747.31;5027160;28;20272;-80
2023/05/14 08:57:25;;;;;;;4.10;3.23;;;;;;;23.68;42.24;101716.09;5034310;28;20306;-81
2023/05/14 08:59:52;;;;;;;4.93;3.40;;;;;;;24.02;42.96;101718.88;5020918;28;20198;-79
2023/05/14 09:02:21;;;;;;;3.93;3.10;;;;;;;24.08;41.90;101706.50;5033019;28;20190;-77
2023/05/14 09:04:49;;;;;;;6.73;3.53;;;;;;;24.41;42.45;101744.19;5000861;28;20206;-80
2023/05/14 09:07:14;;;;;;;3.95;3.53;;;;;;;24.45;43.22;101743.22;5032779;28;20264;-78
2023/05/14 09:09:40;;;;;;;4.85;3.08;;;;;;;24.47;43.21;101717.84;5016019;28;20608;-79
2023/05/14 09:12:06;;;;;;;10.45;3.50;;;;;;;24.66;43.27;101727.88;5031218;28;20190;-79
2023/05/14 09:14:32;;;;;;;4.80;3.33;;;;;;;24.43;40.90;101695.22;5019088;28;20209;-79
2023/05/14 09:16:58;;;;;;;4.00;3.45;;;;;;;24.73;42.97;101726.81;5019854;28;20206;-79
2023/05/14 09:19:24;;;;;;;4.93;3.78;;;;;;;24.58;40.65;101693.13;5047983;28;20688;-80
2023/05/14 09:21:50;;;;;;;8.05;3.20;;;;;;;24.57;41.08;101714.97;5005338;28;20221;-79
2023/05/14 09:24:20;;;;;;;5.27;3.37;;;;;;;24.54;39.19;101690.63;5034993;28;20269;-80
2023/05/14 09:26:52;;;;;;;4.37;3.10;;;;;;;24.81;39.63;101708.31;5030514;28;20230;-81
2023/05/14 09:29:18;;;;;;;3.85;3.30;;;;;;;24.57;38.03;101691.41;5030302;28;20186;-78
2023/05/14 09:31:43;;;;;;;9.30;3.67;;;;;;;24.66;38.64;101704.31;5037274;28;20269;-79
2023/05/14 09:34:09;;;;;;;4.23;3.00;;;;;;;24.45;36.21;101677.75;5026143;28;20248;-79
2023/05/14 09:36:35;;;;;;;6.23;3.17;;;;;;;24.26;36.56;101687.78;5034294;28;20224;-79
2023/05/14 09:39:02;;;;;;;6.97;3.10;;;;;;;24.44;36.93;101697.81;5018125;28;20224;-78
2023/05/14 09:41:28;;;;;;;6.40;2.83;;;;;;;24.59;36.93;101702.72;5034546;28;20196;-78
2023/05/14 09:43:55;;;;;;;6.40;3.30;;;;;;;24.92;38.08;101729.88;5023571;28;20250;-80
2023/05/14 09:46:22;;;;;;;4.47;3.03;;;;;;;24.92;35.02;101680.06;5014883;28;20289;-80
2023/05/14 09:48:48;;;;;;;4.85;2.67;;;;;;;25.01;34.80;101685.91;5031022;28;20210;-79
2023/05/14 09:51:13;;;;;;;3.65;2.60;;;;;;;25.58;36.58;101722.84;5033370;28;20194;-79
2023/05/14 09:53:40;;;;;;;4.15;2.90;;;;;;;25.27;36.00;101701.84;5034345;28;20277;-79
2023/05/14 09:56:05;;;;;;;4.15;2.75;;;;;;;24.83;36.96;101727.47;5016220;28;20634;-80
2023/05/14 09:58:31;;;;;;;3.25;2.95;;;;;;;25.01;35.45;101700.81;5025099;28;20222;-80
2023/05/14 10:00:57;;;;;;;3.45;2.75;;;;;;;25.26;37.01;101707.09;5039922;28;20199;-79
2023/05/14 10:03:25;;;;;;;3.45;3.15;;;;;;;25.41;36.12;101686.59;5003094;28;20190;-80
2023/05/14 10:05:51;;;;;;;5.32;2.95;;;;;;;25.81;36.66;101686.31;5033302;28;20282;-81
2023/05/14 10:08:29;;;;;;;4.25;3.13;;;;;;;25.15;35.63;101670.69;5018531;28;20303;-78
2023/05/14 10:10:58;;;;;;;3.83;3.40;;;;;;;24.50;37.23;101723.88;5033854;28;20196;-77
2023/05/14 10:13:30;;;;;;;7.70;3.20;;;;;;;24.06;37.61;101729.25;5034230;28;20640;-78
2023/05/14 10:16:11;;;;;;;3.33;3.03;;;;;;;23.94;38.85;101747.84;5019477;28;20256;-79
2023/05/14 10:18:47;;;;;;;4.60;3.47;;;;;;;24.46;38.41;101752.81;5009188;28;20222;-79
2023/05/14 10:21:13;;;;;;;4.37;3.47;;;;;;;24.72;38.35;101737.38;5034289;28;20186;-80
2023/05/14 10:23:39;;;;;;;3.85;3.15;;;;;;;25.50;38.84;101735.34;5011207;28;20198;-79
2023/05/14 10:26:06;;;;;;;6.60;3.20;;;;;;;25.76;37.57;101715.34;5034352;28;20200;-81
2023/05/14 10:28:32;;;;;;;3.53;3.20;;;;;;;25.19;37.48;101708.19;5033990;28;20217;-78
2023/05/14 10:30:59;;;;;;;4.60;3.35;;;;;;;24.36;37.17;101686.66;5031107;28;20230;-78
2023/05/14 10:33:24;;;;;;;6.30;3.70;;;;;;;24.22;37.88;101699.22;5019849;28;20198;-78
2023/05/14 10:35:58;;;;;;;4.13;3.10;;;;;;;23.77;38.97;101725.50;5035825;28;20196;-79
2023/05/14 10:38:35;;;;;;;5.40;3.50;;;;;;;23.62;38.82;101737.13;5045936;28;20214;-79
2023/05/14 10:41:06;;;;;;;4.17;3.77;;;;;;;23.06;40.32;101759.94;5032409;28;20209;-77
2023/05/14 10:43:39;;;;;;;3.97;3.50;;;;;;;23.63;40.10;101772.00;5033048;28;20207;-81
2023/05/14 10:46:05;;;;;;;3.57;3.27;;;;;;;23.66;39.19;101743.19;5028957;28;20225;-80
2023/05/14 10:48:32;;;;;;;3.60;3.30;;;;;;;23.46;39.32;101734.81;5033152;28;20194;-79
2023/05/14 10:50:58;;;;;;;4.30;3.90;;;;;;;23.37;40.20;101745.47;5049562;28;20229;-80
2023/05/14 10:53:39;;;;;;;6.47;3.80;;;;;;;23.35;40.45;101755.09;5032770;28;20198;-79
2023/05/14 10:56:12;;;;;;;6.00;3.60;;;;;;;22.61;40.35;101738.03;5021189;28;20288;-80
2023/05/14 10:58:40;;;;;;;4.10;3.67;;;;;;;22.73;41.59;101771.78;5033119;28;20215;-80
2023/05/14 11:01:07;;;;;;;3.30;3.00;;;;;;;22.85;40.82;101753.31;5015847;28;20222;-79
2023/05/14 11:03:42;;;;;;;4.80;3.30;;;;;;;23.19;41.69;101777.16;5027974;28;20182;-80
2023/05/14 11:06:09;;;;;;;3.70;3.17;;;;;;;23.05;39.14;101705.94;5034787;28;20241;-80
2023/05/14 11:08:35;;;;;;;3.63;3.30;;;;;;;23.16;39.48;101712.69;5035152;28;20311;-79
2023/05/14 11:11:01;;;;;;;3.93;3.40;;;;;;;22.58;39.17;101700.66;5022255;28;20249;-81
2023/05/14 11:13:26;;;;;;;3.33;3.03;;;;;;;22.89;39.58;101715.81;4998943;28;20696;-79
2023/05/14 11:15:52;;;;;;;3.63;3.03;;;;;;;22.47;38.87;101694.75;5034436;28;20194;-79